createdAt,value
2018-07-08T00:00:47.837Z,76.80
2018-07-08T00:03:15.452Z,76.80
2018-07-08T00:05:43.112Z,77.20
2018-07-08T00:08:10.722Z,77.60
2018-07-08T00:10:39.630Z,77.00
2018-07-08T00:13:08.065Z,77.60
2018-07-08T00:15:35.702Z,77.20
2018-07-08T00:18:03.399Z,77.60
2018-07-08T00:20:30.991Z,77.40
2018-07-08T00:22:58.644Z,77.20
2018-07-08T00:25:26.336Z,77.40
2018-07-08T00:27:54.036Z,77.60
2018-07-08T00:30:21.678Z,77.60
2018-07-08T00:32:49.250Z,77.20
2018-07-08T00:35:16.897Z,77.70
2018-07-08T00:37:44.484Z,77.70
2018-07-08T00:40:12.056Z,77.90
2018-07-08T00:42:39.699Z,78.30
2018-07-08T00:45:07.352Z,78.40
2018-07-08T00:47:35.000Z,78.20
2018-07-08T00:50:02.672Z,77.90
2018-07-08T00:52:30.277Z,78.20
2018-07-08T00:54:57.857Z,78.30
2018-07-08T00:59:52.922Z,78.30
2018-07-08T01:02:20.553Z,78.40
2018-07-08T01:04:48.134Z,78.50
2018-07-08T01:07:15.739Z,78.40
2018-07-08T01:09:43.367Z,78.80
2018-07-08T01:12:11.097Z,79.10
2018-07-08T01:14:38.732Z,79.40
2018-07-08T01:17:06.409Z,79.00
2018-07-08T01:19:34.064Z,79.10
2018-07-08T01:24:29.137Z,79.60
2018-07-08T01:26:56.703Z,79.80
2018-07-08T01:29:24.366Z,79.60
2018-07-08T01:31:51.972Z,79.80
2018-07-08T01:34:19.535Z,79.10
2018-07-08T01:36:47.849Z,78.60
2018-07-08T01:39:20.582Z,79.00
2018-07-08T01:41:49.918Z,78.40
2018-07-08T01:44:20.701Z,79.40
2018-07-08T01:46:49.379Z,79.70
2018-07-08T01:49:48.893Z,80.40
2018-07-08T01:52:16.445Z,80.40
2018-07-08T01:54:45.308Z,80.80
2018-07-08T01:57:12.887Z,80.70
2018-07-08T01:59:40.517Z,80.50
2018-07-08T02:02:09.034Z,79.90
2018-07-08T02:04:36.698Z,80.40
2018-07-08T02:07:04.460Z,80.30
2018-07-08T02:09:32.087Z,79.80
2018-07-08T02:11:59.667Z,80.50
2018-07-08T02:14:27.787Z,80.80
2018-07-08T02:16:55.425Z,80.60
2018-07-08T02:19:23.083Z,80.80
2018-07-08T02:21:51.187Z,80.20
2018-07-08T02:24:18.753Z,80.20
2018-07-08T02:26:46.383Z,80.00
2018-07-08T02:29:13.995Z,80.50
2018-07-08T02:31:41.815Z,80.40
2018-07-08T02:34:09.475Z,80.70
2018-07-08T02:36:37.091Z,80.50
2018-07-08T02:39:05.918Z,80.90
2018-07-08T02:41:33.507Z,81.10
2018-07-08T02:44:01.159Z,81.30
2018-07-08T02:46:28.741Z,81.00
2018-07-08T02:48:56.406Z,80.50
2018-07-08T02:51:23.994Z,81.00
2018-07-08T02:53:51.624Z,80.80
2018-07-08T02:56:19.830Z,80.90
2018-07-08T02:58:47.389Z,81.20
2018-07-08T03:01:14.927Z,81.10
2018-07-08T03:03:42.466Z,81.20
2018-07-08T03:06:10.047Z,81.00
2018-07-08T03:08:37.623Z,81.40
2018-07-08T03:11:05.437Z,82.00
2018-07-08T03:13:33.002Z,81.80
2018-07-08T03:18:28.018Z,81.50
2018-07-08T03:20:55.611Z,81.40
2018-07-08T03:23:23.177Z,81.40
2018-07-08T03:25:50.736Z,81.40
2018-07-08T03:28:18.332Z,80.80
2018-07-08T03:30:45.917Z,80.50
2018-07-08T03:33:13.441Z,80.20
2018-07-08T03:35:41.042Z,81.20
2018-07-08T03:38:08.608Z,81.00
2018-07-08T03:40:36.167Z,81.00
2018-07-08T03:43:03.772Z,81.40
2018-07-08T03:45:31.423Z,81.80
2018-07-08T03:47:59.000Z,81.10
2018-07-08T03:50:26.590Z,81.00
2018-07-08T03:52:54.255Z,81.60
2018-07-08T03:55:21.860Z,82.70
2018-07-08T03:57:49.451Z,82.10
2018-07-08T04:00:17.099Z,82.40
2018-07-08T04:02:44.733Z,82.20
2018-07-08T04:05:12.358Z,82.40
2018-07-08T04:07:39.930Z,82.70
2018-07-08T04:10:07.506Z,82.70
2018-07-08T04:12:35.110Z,82.30
2018-07-08T04:15:02.711Z,82.00
2018-07-08T04:17:30.243Z,81.50
2018-07-08T04:19:57.848Z,81.70
2018-07-08T04:22:25.450Z,81.00
2018-07-08T04:24:53.018Z,81.40
2018-07-08T04:27:20.571Z,81.00
2018-07-08T04:29:48.183Z,81.50
2018-07-08T04:32:15.764Z,81.60
2018-07-08T04:34:43.291Z,81.70
2018-07-08T04:37:10.868Z,81.30
2018-07-08T04:39:38.422Z,81.20
2018-07-08T04:42:06.000Z,80.10
2018-07-08T04:44:33.548Z,80.20
2018-07-08T04:47:01.160Z,79.70
2018-07-08T04:49:28.710Z,79.60
2018-07-08T04:51:56.287Z,78.70
2018-07-08T04:54:23.861Z,79.60
2018-07-08T04:56:51.439Z,79.60
2018-07-08T04:59:19.007Z,79.80
2018-07-08T05:01:46.595Z,79.10
2018-07-08T05:04:14.174Z,80.00
2018-07-08T05:06:41.759Z,80.50
2018-07-08T05:09:09.378Z,80.60
2018-07-08T05:11:36.907Z,80.40
2018-07-08T05:14:05.207Z,79.90
2018-07-08T05:16:32.826Z,80.30
2018-07-08T05:19:00.401Z,79.70
2018-07-08T05:21:43.103Z,79.10
2018-07-08T05:24:12.449Z,79.40
2018-07-08T05:26:40.019Z,79.20
2018-07-08T05:29:07.593Z,79.20
2018-07-08T05:31:35.196Z,77.80
2018-07-08T05:34:02.825Z,79.20
2018-07-08T05:36:30.415Z,78.40
2018-07-08T05:38:58.101Z,78.80
2018-07-08T05:41:25.646Z,78.80
2018-07-08T05:43:53.360Z,78.30
2018-07-08T05:46:21.939Z,77.90
2018-07-08T05:48:49.538Z,77.40
2018-07-08T05:51:17.122Z,76.80
2018-07-08T05:53:44.759Z,77.00
2018-07-08T05:56:12.332Z,76.80
2018-07-08T05:58:40.124Z,77.10
2018-07-08T06:01:12.261Z,76.50
2018-07-08T06:03:47.963Z,75.40
2018-07-08T06:06:18.927Z,75.10
2018-07-08T06:08:46.700Z,74.90
2018-07-08T06:11:14.231Z,75.40
2018-07-08T06:13:41.897Z,75.70
2018-07-08T06:16:09.478Z,74.00
2018-07-08T06:18:38.048Z,74.00
2018-07-08T06:21:05.774Z,73.40
2018-07-08T06:23:33.382Z,73.30
2018-07-08T06:26:01.039Z,72.00
2018-07-08T06:28:28.565Z,72.60
2018-07-08T06:30:56.198Z,73.50
2018-07-08T06:33:23.799Z,73.90
2018-07-08T06:35:51.417Z,75.50
2018-07-08T06:38:19.014Z,75.50
2018-07-08T06:40:46.635Z,74.30
2018-07-08T06:43:14.229Z,74.70
2018-07-08T06:45:41.899Z,74.70
2018-07-08T06:48:09.493Z,74.80
2018-07-08T06:50:37.097Z,75.10
2018-07-08T06:53:04.752Z,75.20
2018-07-08T06:55:35.169Z,74.40
2018-07-08T06:58:15.540Z,73.40
2018-07-08T07:00:44.820Z,75.10
2018-07-08T07:03:17.767Z,74.10
2018-07-08T07:05:47.117Z,74.70
2018-07-08T07:08:18.329Z,74.30
2018-07-08T07:10:49.672Z,72.90
2018-07-08T07:13:17.922Z,71.00
2018-07-08T07:15:46.087Z,69.80
2018-07-08T07:18:13.791Z,71.50
2018-07-08T07:20:41.444Z,68.10
2018-07-08T07:23:09.165Z,69.80
2018-07-08T07:25:36.805Z,67.70
2018-07-08T07:28:04.648Z,64.70
2018-07-08T07:30:32.277Z,68.00
2018-07-08T07:35:27.533Z,65.80
2018-07-08T07:37:55.389Z,66.00
2018-07-08T07:40:22.980Z,64.80
2018-07-08T07:42:50.600Z,62.00
2018-07-08T07:45:18.226Z,62.20
2018-07-08T07:50:13.307Z,65.80
2018-07-08T07:52:40.881Z,62.30
2018-07-08T07:55:08.443Z,61.10
2018-07-08T07:57:36.029Z,62.50
2018-07-08T08:00:04.107Z,64.60
2018-07-08T08:02:31.761Z,63.60
2018-07-08T08:04:59.368Z,63.70
2018-07-08T08:07:26.990Z,64.40
2018-07-08T08:09:54.606Z,64.80
2018-07-08T08:12:22.191Z,66.50
2018-07-08T08:14:49.811Z,63.80
2018-07-08T08:17:17.367Z,59.30
2018-07-08T08:19:44.989Z,60.20
2018-07-08T08:22:13.252Z,62.10
2018-07-08T08:24:40.894Z,60.80
2018-07-08T08:27:08.547Z,58.90
2018-07-08T08:29:36.132Z,60.90
2018-07-08T08:32:03.879Z,59.10
2018-07-08T08:35:05.852Z,60.90
2018-07-08T08:37:36.384Z,55.20
2018-07-08T08:40:04.528Z,55.30
2018-07-08T08:42:32.190Z,57.00
2018-07-08T08:45:01.455Z,59.70
2018-07-08T08:47:33.248Z,59.80
2018-07-08T08:50:00.836Z,58.30
2018-07-08T08:52:28.468Z,54.10
2018-07-08T08:54:56.518Z,52.80
2018-07-08T08:57:25.107Z,51.30
2018-07-08T08:59:52.859Z,52.60
2018-07-08T09:02:21.104Z,51.50
2018-07-08T09:04:53.847Z,51.80
2018-07-08T09:07:22.638Z,53.40
2018-07-08T09:09:51.303Z,52.60
2018-07-08T09:12:21.129Z,51.70
2018-07-08T09:14:48.740Z,50.10
2018-07-08T09:17:16.485Z,51.30
2018-07-08T09:19:44.124Z,52.10
2018-07-08T09:22:11.777Z,52.90
2018-07-08T09:24:39.460Z,52.90
2018-07-08T09:27:07.324Z,51.20
2018-07-08T09:29:34.919Z,50.70
2018-07-08T09:34:30.237Z,53.90
2018-07-08T09:36:57.827Z,51.20
2018-07-08T09:39:25.655Z,50.60
2018-07-08T09:41:53.243Z,52.40
2018-07-08T09:44:20.825Z,47.60
2018-07-08T09:46:48.939Z,47.90
2018-07-08T09:49:16.728Z,47.50
2018-07-08T09:51:44.888Z,46.60
2018-07-08T09:54:12.690Z,48.10
2018-07-08T09:56:40.379Z,49.80
2018-07-08T09:59:08.049Z,48.50
2018-07-08T10:01:40.764Z,48.30
2018-07-08T10:04:10.224Z,50.50
2018-07-08T10:06:38.006Z,49.00
2018-07-08T10:09:07.729Z,49.90
2018-07-08T10:11:35.482Z,48.10
2018-07-08T10:14:07.400Z,48.60
2018-07-08T10:16:35.682Z,48.40
2018-07-08T10:19:04.522Z,48.00
2018-07-08T10:21:32.259Z,48.20
2018-07-08T10:23:59.950Z,45.70
2018-07-08T10:26:27.638Z,44.90
2018-07-08T10:29:02.019Z,46.50
2018-07-08T10:31:42.833Z,46.60
2018-07-08T10:34:11.924Z,48.00
2018-07-08T10:36:44.942Z,48.80
2018-07-08T10:39:13.600Z,49.40
2018-07-08T10:41:41.483Z,49.80
2018-07-08T10:44:09.464Z,48.50
2018-07-08T10:46:37.192Z,47.50
2018-07-08T10:49:04.963Z,47.40
2018-07-08T10:51:32.647Z,46.00
2018-07-08T10:54:00.320Z,49.40
2018-07-08T10:56:28.065Z,49.90
2018-07-08T10:58:55.717Z,46.90
2018-07-08T11:01:23.407Z,47.50
2018-07-08T11:03:51.086Z,46.40
2018-07-08T11:06:18.701Z,45.70
2018-07-08T11:08:46.317Z,47.50
2018-07-08T11:11:14.039Z,46.80
2018-07-08T11:13:41.706Z,46.60
2018-07-08T11:16:09.365Z,46.70
2018-07-08T11:18:37.010Z,49.70
2018-07-08T11:21:04.717Z,47.00
2018-07-08T11:23:32.366Z,46.40
2018-07-08T11:26:00.095Z,44.90
2018-07-08T11:28:27.733Z,45.10
2018-07-08T11:30:55.416Z,45.60
2018-07-08T11:33:23.081Z,47.50
2018-07-08T11:35:50.688Z,51.30
2018-07-08T11:38:18.332Z,50.50
2018-07-08T11:40:46.022Z,44.70
2018-07-08T11:43:13.636Z,40.70
2018-07-08T11:45:41.198Z,40.90
2018-07-08T11:48:08.851Z,36.30
2018-07-08T11:50:36.458Z,33.00
2018-07-08T11:53:04.156Z,30.80
2018-07-08T11:55:31.864Z,29.70
2018-07-08T11:57:59.447Z,27.50
2018-07-08T12:00:27.066Z,24.80
2018-07-08T12:02:54.643Z,25.80
2018-07-08T12:05:22.284Z,23.60
2018-07-08T12:07:49.912Z,22.70
2018-07-08T12:10:17.542Z,21.50
2018-07-08T12:12:45.134Z,21.60
2018-07-08T12:15:12.743Z,22.60
2018-07-08T12:17:40.399Z,21.60
2018-07-08T12:20:08.024Z,21.50
2018-07-08T12:22:35.646Z,20.40
2018-07-08T12:25:03.357Z,18.90
2018-07-08T12:27:50.328Z,19.10
2018-07-08T12:30:19.905Z,18.10
2018-07-08T12:32:49.127Z,18.30
2018-07-08T12:35:16.757Z,17.90
2018-07-08T12:37:44.387Z,17.20
2018-07-08T12:40:12.041Z,17.60
2018-07-08T12:42:39.684Z,16.60
2018-07-08T12:45:07.334Z,16.70
2018-07-08T12:47:34.956Z,16.80
2018-07-08T12:50:02.617Z,17.30
2018-07-08T12:52:30.252Z,16.60
2018-07-08T12:54:57.826Z,16.90
2018-07-08T12:57:25.453Z,16.70
2018-07-08T12:59:53.144Z,16.70
2018-07-08T13:02:20.778Z,17.10
2018-07-08T13:04:48.431Z,16.70
2018-07-08T13:07:16.040Z,16.10
2018-07-08T13:09:43.930Z,16.60
2018-07-08T13:12:11.581Z,15.60
2018-07-08T13:14:39.252Z,16.40
2018-07-08T13:17:06.897Z,16.20
2018-07-08T13:19:34.480Z,16.40
2018-07-08T13:22:03.628Z,16.00
2018-07-08T13:24:31.319Z,15.50
2018-07-08T13:26:58.925Z,16.30
2018-07-08T13:29:26.594Z,17.60
2018-07-08T13:31:54.367Z,17.70
2018-07-08T13:34:22.017Z,18.30
2018-07-08T13:36:52.407Z,17.90
2018-07-08T13:39:20.111Z,18.30
2018-07-08T13:41:47.686Z,19.80
2018-07-08T13:44:15.373Z,18.00
2018-07-08T13:46:42.984Z,18.40
2018-07-08T13:49:10.640Z,17.50
2018-07-08T13:51:38.219Z,17.40
2018-07-08T13:54:05.883Z,17.20
2018-07-08T13:56:33.524Z,18.00
2018-07-08T13:59:01.194Z,17.70
2018-07-08T14:01:28.831Z,19.20
2018-07-08T14:03:57.701Z,19.60
2018-07-08T14:06:26.018Z,21.20
2018-07-08T14:08:56.360Z,20.90
2018-07-08T14:13:54.083Z,25.90
2018-07-08T14:16:22.270Z,29.10
2018-07-08T14:18:52.806Z,26.60
2018-07-08T14:21:21.619Z,29.40
2018-07-08T14:24:42.839Z,29.70
2018-07-08T14:27:11.884Z,31.70
2018-07-08T14:29:43.917Z,32.00
2018-07-08T14:32:14.954Z,32.40
2018-07-08T14:34:44.805Z,29.40
2018-07-08T14:37:14.729Z,29.40
2018-07-08T14:39:45.445Z,27.00
2018-07-08T14:42:32.815Z,26.30
2018-07-08T14:45:01.399Z,27.40
2018-07-08T14:47:32.769Z,29.20
2018-07-08T14:50:00.477Z,30.80
2018-07-08T14:52:28.211Z,32.50
2018-07-08T14:54:55.841Z,30.30
2018-07-08T14:57:23.456Z,27.60
2018-07-08T14:59:51.053Z,26.80
2018-07-08T15:02:18.673Z,25.60
2018-07-08T15:04:46.368Z,23.70
2018-07-08T15:07:14.003Z,23.50
2018-07-08T15:09:41.759Z,21.90
2018-07-08T15:12:09.329Z,21.70
2018-07-08T15:14:36.943Z,24.40
2018-07-08T15:17:04.539Z,24.30
2018-07-08T15:19:32.256Z,24.30
2018-07-08T15:22:00.066Z,24.40
2018-07-08T15:24:27.836Z,22.90
2018-07-08T15:26:55.533Z,23.00
2018-07-08T15:29:23.183Z,23.40
2018-07-08T15:31:50.781Z,22.70
2018-07-08T15:36:45.945Z,24.40
2018-07-08T15:39:13.703Z,23.70
2018-07-08T15:41:41.434Z,25.00
2018-07-08T15:46:36.648Z,25.90
2018-07-08T15:49:04.281Z,26.90
2018-07-08T15:51:31.915Z,26.70
2018-07-08T15:54:00.586Z,24.70
2018-07-08T15:56:28.215Z,25.70
2018-07-08T15:59:06.764Z,26.40
2018-07-08T16:01:34.467Z,27.30
2018-07-08T16:04:02.612Z,28.40
2018-07-08T16:06:30.297Z,27.70
2018-07-08T16:08:57.904Z,27.90
2018-07-08T16:11:26.013Z,29.00
2018-07-08T16:13:54.001Z,30.10
2018-07-08T16:16:21.608Z,30.70
2018-07-08T16:18:49.238Z,30.30
2018-07-08T16:21:16.985Z,32.70
2018-07-08T16:23:44.685Z,31.10
2018-07-08T16:26:12.402Z,32.40
2018-07-08T16:28:39.992Z,32.20
2018-07-08T16:31:07.947Z,32.90
2018-07-08T16:33:36.785Z,32.90
2018-07-08T16:36:04.789Z,35.70
2018-07-08T16:38:36.422Z,37.10
2018-07-08T16:41:04.195Z,36.50
2018-07-08T16:43:31.807Z,35.70
2018-07-08T16:45:59.496Z,36.10
2018-07-08T16:48:27.205Z,35.40
2018-07-08T16:50:54.786Z,38.40
2018-07-08T16:53:22.451Z,39.40
2018-07-08T16:55:50.139Z,39.80
2018-07-08T16:58:17.820Z,40.00
2018-07-08T17:00:45.485Z,40.60
2018-07-08T17:03:13.126Z,41.20
2018-07-08T17:05:40.777Z,43.90
2018-07-08T17:08:08.388Z,44.90
2018-07-08T17:10:36.767Z,40.30
2018-07-08T17:13:04.383Z,41.80
2018-07-08T17:15:32.867Z,41.10
2018-07-08T17:18:00.523Z,44.10
2018-07-08T17:20:28.585Z,45.40
2018-07-08T17:22:56.409Z,44.80
2018-07-08T17:25:24.113Z,46.80
2018-07-08T17:27:51.767Z,44.40
2018-07-08T17:30:19.298Z,42.90
2018-07-08T17:32:47.115Z,46.60
2018-07-08T17:35:14.754Z,47.40
2018-07-08T17:37:42.683Z,45.90
2018-07-08T17:40:10.382Z,42.30
2018-07-08T17:42:38.027Z,45.10
2018-07-08T17:45:05.916Z,45.90
2018-07-08T17:47:33.534Z,47.70
2018-07-08T17:50:01.752Z,47.60
2018-07-08T17:52:29.790Z,48.60
2018-07-08T17:54:57.462Z,49.10
2018-07-08T17:57:25.202Z,48.20
2018-07-08T17:59:52.894Z,49.60
2018-07-08T18:02:20.667Z,49.70
2018-07-08T18:07:15.985Z,48.10
2018-07-08T18:09:43.637Z,47.60
2018-07-08T18:12:11.265Z,50.80
2018-07-08T18:14:39.408Z,50.80
2018-07-08T18:17:07.121Z,50.60
2018-07-08T18:19:35.872Z,50.10
2018-07-08T18:22:03.946Z,53.30
2018-07-08T18:24:31.677Z,52.00
2018-07-08T18:29:27.680Z,54.10
2018-07-08T18:31:56.651Z,51.00
2018-07-08T18:34:24.345Z,53.90
2018-07-08T18:36:52.245Z,52.70
2018-07-08T18:39:19.896Z,54.10
2018-07-08T18:41:47.552Z,56.70
2018-07-08T18:44:16.631Z,51.60
2018-07-08T18:46:44.512Z,54.60
2018-07-08T18:49:12.194Z,53.40
2018-07-08T18:54:07.663Z,51.90
2018-07-08T18:56:35.333Z,53.60
2018-07-08T18:59:03.872Z,53.60
2018-07-08T19:01:32.600Z,53.30
2018-07-08T19:04:00.226Z,53.10
2018-07-08T19:06:28.043Z,52.80
2018-07-08T19:08:55.643Z,53.20
2018-07-08T19:11:23.408Z,53.50
2018-07-08T19:13:51.247Z,53.20
2018-07-08T19:16:18.942Z,53.30
2018-07-08T19:18:46.744Z,53.70
2018-07-08T19:21:14.442Z,53.20
2018-07-08T19:23:42.519Z,53.70
2018-07-08T19:26:10.247Z,53.90
2018-07-08T19:28:38.005Z,54.80
2018-07-08T19:31:05.981Z,53.80
2018-07-08T19:33:33.608Z,55.10
2018-07-08T19:36:02.428Z,54.70
2018-07-08T19:38:30.652Z,54.80
2018-07-08T19:40:58.436Z,56.20
2018-07-08T19:43:26.130Z,55.20
2018-07-08T19:45:53.905Z,54.70
2018-07-08T19:48:21.758Z,55.80
2018-07-08T19:50:49.615Z,56.00
2018-07-08T19:53:17.421Z,56.30
2018-07-08T19:55:45.247Z,56.50
2018-07-08T19:58:13.024Z,57.40
2018-07-08T20:00:40.742Z,57.50
2018-07-08T20:03:08.557Z,57.00
2018-07-08T20:05:36.419Z,57.80
2018-07-08T20:08:04.153Z,59.10
2018-07-08T20:10:32.027Z,59.00
2018-07-08T20:12:59.772Z,59.30
2018-07-08T20:15:27.620Z,59.90
2018-07-08T20:17:55.563Z,60.20
2018-07-08T20:20:23.610Z,61.00
2018-07-08T20:22:51.400Z,61.10
2018-07-08T20:25:19.092Z,60.80
2018-07-08T20:27:46.758Z,61.00
2018-07-08T20:30:14.408Z,62.30
2018-07-08T20:32:43.077Z,62.00
2018-07-08T20:35:11.129Z,62.20
2018-07-08T20:37:38.840Z,62.40
2018-07-08T20:40:06.528Z,62.20
2018-07-08T20:42:34.205Z,61.60
2018-07-08T20:45:02.129Z,62.50
2018-07-08T20:47:29.883Z,63.10
2018-07-08T20:49:57.553Z,63.30
2018-07-08T20:52:25.266Z,63.50
2018-07-08T20:54:52.961Z,63.70
2018-07-08T20:59:48.268Z,63.90
2018-07-08T21:02:16.023Z,63.80
2018-07-08T21:04:43.671Z,64.10
2018-07-08T21:07:11.415Z,63.80
2018-07-08T21:09:39.127Z,64.30
2018-07-08T21:12:06.807Z,64.00
2018-07-08T21:14:34.544Z,64.60
2018-07-08T21:17:02.173Z,65.40
2018-07-08T21:19:29.872Z,65.90
2018-07-08T21:21:57.659Z,65.20
2018-07-08T21:24:25.484Z,65.00
2018-07-08T21:26:53.395Z,64.60
2018-07-08T21:29:21.124Z,65.30
2018-07-08T21:31:48.813Z,64.90
2018-07-08T21:34:16.469Z,64.90
2018-07-08T21:36:44.225Z,65.50
2018-07-08T21:41:40.889Z,66.30
2018-07-08T21:44:08.850Z,66.20
2018-07-08T21:46:36.543Z,66.50
2018-07-08T21:49:04.246Z,66.40
2018-07-08T21:51:31.852Z,66.20
2018-07-08T21:53:59.535Z,66.30
2018-07-08T21:56:27.195Z,66.40
2018-07-08T21:58:54.820Z,67.00
2018-07-08T22:03:51.406Z,66.50
2018-07-08T22:06:19.527Z,66.90
2018-07-08T22:08:47.142Z,67.30
2018-07-08T22:11:14.812Z,67.50
2018-07-08T22:13:43.044Z,67.70
2018-07-08T22:16:10.677Z,67.80
2018-07-08T22:18:38.501Z,67.70
2018-07-08T22:21:06.943Z,67.70
2018-07-08T22:23:35.091Z,67.50
2018-07-08T22:26:03.091Z,67.20
2018-07-08T22:28:31.257Z,67.20
2018-07-08T22:30:59.005Z,66.60
2018-07-08T22:33:26.681Z,67.00
2018-07-08T22:35:54.393Z,67.50
2018-07-08T22:38:22.020Z,67.90
2018-07-08T22:40:49.678Z,67.70
2018-07-08T22:43:17.307Z,67.80
2018-07-08T22:45:44.914Z,68.60
2018-07-08T22:48:12.530Z,68.30
2018-07-08T22:50:40.346Z,69.00
2018-07-08T22:53:08.958Z,68.50
2018-07-08T22:55:36.612Z,68.50
2018-07-08T22:58:04.820Z,68.50
2018-07-08T23:00:43.713Z,68.90
2018-07-08T23:03:54.359Z,68.80
2018-07-08T23:06:22.069Z,68.90
2018-07-08T23:08:53.070Z,69.10
2018-07-08T23:11:21.913Z,69.60
2018-07-08T23:13:50.841Z,69.60
2018-07-08T23:16:18.773Z,70.20
2018-07-08T23:18:46.978Z,70.00
2018-07-08T23:21:14.740Z,70.20
2018-07-08T23:23:42.396Z,70.20
2018-07-08T23:26:09.994Z,70.70
2018-07-08T23:28:38.104Z,70.70
2018-07-08T23:31:06.388Z,70.30
2018-07-08T23:33:34.015Z,70.90
2018-07-08T23:36:03.135Z,71.20
2018-07-08T23:38:32.435Z,71.50
2018-07-08T23:41:01.029Z,71.40
2018-07-08T23:43:28.961Z,71.70
2018-07-08T23:45:56.621Z,71.40
2018-07-08T23:48:24.302Z,71.40
2018-07-08T23:50:51.921Z,71.00
2018-07-08T23:53:19.552Z,71.60
2018-07-08T23:55:47.908Z,71.20
2018-07-08T23:58:15.463Z,71.30
